Time;durP1;ratioP1;P1;durP2;ratioP2;P2;SDS_P1;SDS_P2;PMS_P1;PMS_P2;Temp;Humidity;BMP_temperature;BMP_pressure;BME280_temperature;BME280_humidity;BME280_pressure;Samples;Min_cycle;Max_cycle;Signal;HPM_P1;HPM_P2
2022/08/03 00:01:34;;;;;;;5.30;2.00;;;29.90;47.00;;;;;;5033244;28;20109;-73
2022/08/03 00:04:00;;;;;;;3.88;2.22;;;29.90;46.80;;;;;;5033046;28;20040;-75
2022/08/03 00:06:26;;;;;;;6.63;2.22;;;29.90;46.50;;;;;;5033197;28;20459;-72
2022/08/03 00:08:52;;;;;;;9.13;2.40;;;29.90;46.70;;;;;;5033594;28;20032;-74
2022/08/03 00:11:17;;;;;;;6.32;2.40;;;29.90;46.50;;;;;;5033240;28;20029;-75
2022/08/03 00:13:43;;;;;;;6.38;2.38;;;29.80;46.70;;;;;;5033151;28;20025;-74
2022/08/03 00:16:09;;;;;;;3.92;2.20;;;29.80;46.80;;;;;;5033127;28;20195;-73
2022/08/03 00:18:36;;;;;;;7.70;2.30;;;29.70;46.70;;;;;;5033159;28;20025;-73
2022/08/03 00:21:02;;;;;;;3.92;2.13;;;29.70;46.60;;;;;;5032998;28;20348;-73
2022/08/03 00:23:28;;;;;;;7.28;2.30;;;29.60;45.60;;;;;;5032733;28;20041;-72
2022/08/03 00:25:54;;;;;;;6.75;2.22;;;29.50;46.50;;;;;;5032787;28;20382;-72
2022/08/03 00:28:19;;;;;;;5.05;2.15;;;29.50;46.80;;;;;;5031681;28;20068;-74
2022/08/03 00:30:45;;;;;;;5.90;2.13;;;29.50;46.60;;;;;;5032861;28;20455;-73
2022/08/03 00:33:11;;;;;;;7.03;2.28;;;29.50;46.60;;;;;;5031500;28;20029;-73
2022/08/03 00:35:37;;;;;;;4.05;1.90;;;29.50;46.60;;;;;;5032837;28;20390;-74
2022/08/03 00:38:03;;;;;;;5.13;2.10;;;29.50;46.70;;;;;;5032819;28;20041;-72
2022/08/03 00:40:28;;;;;;;5.63;2.45;;;29.50;46.30;;;;;;5031567;28;20030;-74
2022/08/03 00:43:00;;;;;;;7.55;2.03;;;29.50;46.50;;;;;;5032860;28;20479;-72
2022/08/03 00:45:29;;;;;;;4.85;2.17;;;29.50;46.60;;;;;;5032778;28;20126;-71
2022/08/03 00:47:55;;;;;;;4.65;2.13;;;29.40;46.50;;;;;;5032763;28;20068;-73
2022/08/03 00:50:24;;;;;;;3.88;1.73;;;29.40;46.50;;;;;;5032807;28;20060;-71
2022/08/03 00:52:52;;;;;;;4.65;2.00;;;29.40;46.50;;;;;;5032725;28;20033;-71
2022/08/03 00:55:18;;;;;;;6.00;2.30;;;29.40;46.70;;;;;;5032490;28;20053;-70
2022/08/03 00:57:44;;;;;;;4.85;2.10;;;29.50;46.50;;;;;;5032874;28;20067;-70
2022/08/03 01:00:12;;;;;;;4.63;1.90;;;29.50;46.40;;;;;;5033127;28;20100;-73
2022/08/03 01:02:39;;;;;;;6.57;2.00;;;29.50;46.30;;;;;;5032959;28;20042;-72
2022/08/03 01:05:06;;;;;;;5.70;2.10;;;29.50;46.50;;;;;;5032680;28;20022;-71
2022/08/03 01:07:56;;;;;;;5.82;1.90;;;29.50;46.40;;;;;;5032102;28;20455;-73
2022/08/03 01:10:34;;;;;;;5.20;1.98;;;29.50;45.50;;;;;;5032561;28;20510;-73
2022/08/03 01:13:25;;;;;;;6.28;2.28;;;29.40;45.80;;;;;;5032615;28;20033;-71
2022/08/03 01:15:59;;;;;;;6.50;2.28;;;29.40;45.70;;;;;;5032358;28;20030;-72
2022/08/03 01:18:40;;;;;;;4.03;2.10;;;29.40;45.60;;;;;;5032343;28;20080;-71
2022/08/03 01:21:13;;;;;;;4.63;2.10;;;29.30;45.70;;;;;;5032364;28;20100;-70
2022/08/03 01:24:11;;;;;;;5.47;1.98;;;29.20;46.70;;;;;;5032329;28;20436;-70
2022/08/03 01:26:54;;;;;;;5.38;1.88;;;29.20;45.90;;;;;;5030925;28;20052;-70
2022/08/03 01:29:47;;;;;;;5.05;2.15;;;29.20;47.00;;;;;;5032221;28;20513;-74
2022/08/03 01:32:18;;;;;;;5.53;2.20;;;29.10;46.00;;;;;;5032385;28;20048;-74
2022/08/03 01:35:15;;;;;;;3.63;1.83;;;29.10;47.20;;;;;;5032183;28;20339;-74
2022/08/03 01:37:54;;;;;;;5.20;1.90;;;29.00;46.30;;;;;;5032006;28;20033;-73
2022/08/03 01:40:23;;;;;;;5.07;2.00;;;29.00;46.50;;;;;;5031962;28;20406;-74
2022/08/03 01:42:50;;;;;;;3.88;1.80;;;28.90;47.50;;;;;;5032110;28;20033;-74
2022/08/03 01:45:18;;;;;;;6.03;2.33;;;28.90;47.80;;;;;;5031926;28;20101;-74
2022/08/03 01:47:45;;;;;;;3.28;1.92;;;28.80;47.70;;;;;;5032372;28;20048;-75
2022/08/03 01:50:12;;;;;;;4.25;2.10;;;28.70;47.80;;;;;;5032219;28;20022;-71
2022/08/03 01:52:41;;;;;;;3.97;1.85;;;28.70;48.10;;;;;;5032126;28;20018;-71
2022/08/03 01:55:08;;;;;;;3.88;1.80;;;28.60;48.10;;;;;;5031892;28;20109;-71
2022/08/03 01:57:35;;;;;;;3.35;1.92;;;28.60;47.80;;;;;;5032019;28;20017;-71
2022/08/03 02:00:03;;;;;;;5.30;2.05;;;28.50;48.20;;;;;;5031834;28;20033;-70
2022/08/03 02:02:31;;;;;;;3.10;1.77;;;28.50;48.20;;;;;;5031824;28;20075;-71
2022/08/03 02:04:59;;;;;;;4.65;1.92;;;28.50;48.30;;;;;;5032012;28;20058;-73
2022/08/03 02:07:26;;;;;;;5.72;2.10;;;28.50;48.20;;;;;;5031798;28;20044;-70
2022/08/03 02:09:54;;;;;;;8.23;2.35;;;28.60;48.30;;;;;;5031776;28;20017;-70
2022/08/03 02:12:22;;;;;;;7.00;2.17;;;28.60;48.30;;;;;;5031836;28;20064;-70
2022/08/03 02:14:49;;;;;;;6.55;2.00;;;28.60;48.20;;;;;;5031845;28;20022;-72
2022/08/03 02:17:15;;;;;;;6.57;1.90;;;28.60;48.40;;;;;;5032080;28;20396;-72
2022/08/03 02:19:45;;;;;;;5.05;2.10;;;28.70;48.30;;;;;;5034657;28;20479;-72
2022/08/03 02:22:12;;;;;;;3.60;2.00;;;28.70;48.30;;;;;;5035397;28;20528;-70
2022/08/03 02:24:39;;;;;;;6.78;2.30;;;28.70;48.30;;;;;;5035138;28;20038;-73
2022/08/03 02:27:32;;;;;;;4.72;2.10;;;28.70;48.40;;;;;;5035257;28;20025;-70
2022/08/03 02:30:04;;;;;;;5.18;1.98;;;28.70;48.20;;;;;;5034898;28;20041;-70
2022/08/03 02:32:34;;;;;;;6.45;2.17;;;28.60;48.30;;;;;;5035008;28;20033;-70
2022/08/03 02:35:02;;;;;;;5.97;2.30;;;28.60;48.30;;;;;;5034870;28;20037;-72
2022/08/03 02:37:33;;;;;;;5.10;1.90;;;28.60;48.40;;;;;;5035184;28;20036;-71
2022/08/03 02:40:02;;;;;;;4.43;2.00;;;28.50;48.50;;;;;;5035368;28;20041;-70
2022/08/03 02:42:30;;;;;;;3.58;2.17;;;28.50;48.70;;;;;;5034829;28;20067;-71
2022/08/03 02:44:59;;;;;;;5.47;2.10;;;28.50;48.70;;;;;;5034957;28;20490;-70
2022/08/03 02:47:27;;;;;;;4.03;1.90;;;28.40;48.50;;;;;;5034932;28;20093;-70
2022/08/03 02:49:54;;;;;;;5.80;2.25;;;28.40;48.80;;;;;;5034758;28;20044;-70
2022/08/03 02:52:24;;;;;;;6.03;1.95;;;28.30;48.80;;;;;;5034788;28;20025;-72
2022/08/03 02:54:55;;;;;;;8.05;2.20;;;28.30;48.80;;;;;;5034671;28;20140;-70
2022/08/03 02:57:22;;;;;;;5.47;2.10;;;28.40;48.90;;;;;;5034449;28;20498;-70
2022/08/03 02:59:49;;;;;;;4.47;2.05;;;28.30;48.90;;;;;;5034529;28;20056;-71
2022/08/03 03:02:17;;;;;;;3.63;2.10;;;28.30;49.00;;;;;;5034377;28;20021;-70
2022/08/03 03:04:43;;;;;;;4.85;2.50;;;28.30;49.00;;;;;;5034306;28;20037;-70
2022/08/03 03:07:14;;;;;;;4.32;2.25;;;28.30;48.90;;;;;;5033112;28;20112;-71
2022/08/03 03:09:40;;;;;;;5.82;2.38;;;28.30;47.60;;;;;;5034338;28;20029;-69
2022/08/03 03:12:08;;;;;;;6.28;2.28;;;28.20;48.90;;;;;;5034393;28;20053;-69
2022/08/03 03:14:35;;;;;;;6.97;3.70;;;28.20;48.90;;;;;;5034246;28;20033;-69
2022/08/03 03:17:02;;;;;;;6.18;2.70;;;28.20;49.10;;;;;;5034464;28;20017;-70
2022/08/03 03:19:29;;;;;;;5.22;2.10;;;28.20;49.10;;;;;;5034461;28;20374;-70
2022/08/03 03:21:57;;;;;;;4.20;2.03;;;28.20;49.20;;;;;;5034166;28;20499;-69
2022/08/03 03:24:23;;;;;;;4.85;2.30;;;28.20;49.30;;;;;;5034108;28;20549;-70
2022/08/03 03:26:50;;;;;;;5.05;1.98;;;28.20;49.20;;;;;;5034109;28;20021;-70
2022/08/03 03:29:15;;;;;;;4.55;2.00;;;28.20;49.30;;;;;;5033705;28;20031;-70
2022/08/03 03:31:41;;;;;;;5.18;2.40;;;28.20;49.10;;;;;;5034082;28;20029;-70
2022/08/03 03:34:07;;;;;;;3.80;2.03;;;28.20;49.00;;;;;;5034013;28;20179;-73
2022/08/03 03:36:33;;;;;;;5.22;2.22;;;28.20;49.00;;;;;;5033948;28;20029;-73
2022/08/03 03:38:58;;;;;;;11.05;2.70;;;28.10;49.20;;;;;;5033450;28;20029;-73
2022/08/03 03:41:24;;;;;;;6.72;2.50;;;28.10;49.40;;;;;;5033681;28;20140;-76
2022/08/03 03:43:50;;;;;;;5.75;2.15;;;28.00;49.20;;;;;;5034290;28;20044;-72
2022/08/03 03:46:16;;;;;;;8.13;2.30;;;28.00;49.60;;;;;;5033781;28;20021;-74
2022/08/03 03:48:41;;;;;;;4.53;2.10;;;28.00;49.50;;;;;;5033756;28;20083;-73
2022/08/03 03:51:08;;;;;;;7.50;2.10;;;28.00;49.70;;;;;;5033847;28;20021;-75
2022/08/03 03:53:34;;;;;;;6.32;2.10;;;27.90;49.90;;;;;;5033473;28;20061;-76
2022/08/03 03:56:00;;;;;;;4.53;2.30;;;27.80;49.90;;;;;;5033772;28;20139;-74
2022/08/03 03:58:26;;;;;;;7.65;2.65;;;27.80;50.00;;;;;;5033628;28;20037;-75
2022/08/03 04:00:52;;;;;;;7.25;2.33;;;27.90;50.10;;;;;;5033580;28;20017;-74
2022/08/03 04:03:19;;;;;;;6.32;2.38;;;27.90;50.30;;;;;;5033347;28;20040;-73
2022/08/03 04:11:24;;;;;;;8.82;2.30;;;27.80;49.00;;;;;;5033282;28;20029;-74
2022/08/03 04:14:15;;;;;;;3.90;2.00;;;27.80;48.90;;;;;;5033216;28;20017;-69
2022/08/03 04:16:45;;;;;;;5.90;2.05;;;27.80;48.80;;;;;;5033145;28;20096;-70
2022/08/03 04:19:31;;;;;;;5.43;2.20;;;27.80;50.60;;;;;;5031918;28;20063;-72
2022/08/03 04:22:04;;;;;;;4.80;2.20;;;27.70;50.70;;;;;;5037137;28;20068;-70
2022/08/03 04:24:33;;;;;;;;;;;27.70;51.00;;;;;;5042098;28;20041;-70
2022/08/03 04:27:01;;;;;;;6.50;2.78;;;27.70;51.20;;;;;;5036522;28;20263;-69
2022/08/03 04:29:29;;;;;;;4.60;2.30;;;27.70;51.10;;;;;;5031940;28;20041;-69
2022/08/03 04:31:58;;;;;;;4.75;2.45;;;27.70;51.10;;;;;;5033053;28;20056;-68
2022/08/03 04:34:24;;;;;;;5.50;2.22;;;27.70;51.10;;;;;;5033093;28;20018;-71
2022/08/03 04:36:55;;;;;;;5.03;2.35;;;27.70;51.00;;;;;;5032768;28;20040;-72
2022/08/03 04:39:26;;;;;;;6.38;2.20;;;27.70;51.30;;;;;;5032936;28;20096;-71
2022/08/03 04:41:57;;;;;;;4.00;1.95;;;27.70;51.30;;;;;;5032062;28;20069;-72
2022/08/03 04:44:24;;;;;;;6.10;2.42;;;27.70;51.40;;;;;;5032974;28;20073;-70
2022/08/03 04:46:51;;;;;;;8.25;2.80;;;27.60;51.40;;;;;;5032769;28;20025;-75
2022/08/03 04:49:19;;;;;;;12.18;2.60;;;27.70;51.60;;;;;;5032990;28;20753;-71
2022/08/03 04:51:46;;;;;;;6.57;2.40;;;27.70;51.60;;;;;;5034409;28;20025;-72
2022/08/03 04:54:12;;;;;;;4.75;2.50;;;27.60;51.60;;;;;;5032549;28;20021;-73
2022/08/03 04:56:42;;;;;;;7.75;2.30;;;27.60;51.90;;;;;;5032521;28;20390;-70
2022/08/03 04:59:09;;;;;;;6.68;2.25;;;27.70;51.40;;;;;;5032421;28;20122;-69
2022/08/03 05:01:45;;;;;;;;;;;;;;;;;;;;;
2022/08/03 05:04:11;;;;;;;8.38;2.72;;;27.70;51.80;;;;;;5035571;28;20513;-70
2022/08/03 05:06:36;;;;;;;6.80;2.22;;;27.70;51.70;;;;;;5032660;28;20108;-70
2022/08/03 05:09:02;;;;;;;6.55;2.20;;;27.70;51.80;;;;;;5032570;28;20528;-70
2022/08/03 05:11:28;;;;;;;6.45;2.30;;;27.70;51.70;;;;;;5032311;28;20036;-69
2022/08/03 05:13:54;;;;;;;7.53;2.38;;;27.70;51.60;;;;;;5032329;28;20370;-70
2022/08/03 05:16:20;;;;;;;5.43;2.67;;;27.70;51.70;;;;;;5032473;28;20021;-69
2022/08/03 05:18:46;;;;;;;8.80;2.60;;;27.70;51.50;;;;;;5032276;28;20037;-73
2022/08/03 05:21:15;;;;;;;6.72;2.20;;;27.70;51.70;;;;;;5032246;28;20494;-70
2022/08/03 05:23:42;;;;;;;5.75;2.67;;;27.80;52.10;;;;;;5031996;28;20033;-70
2022/08/03 05:26:10;;;;;;;4.40;2.40;;;27.80;52.10;;;;;;5031986;28;20025;-70
2022/08/03 05:28:36;;;;;;;8.18;3.03;;;27.70;51.80;;;;;;5032565;28;20033;-71
2022/08/03 05:31:02;;;;;;;9.85;2.90;;;27.70;52.20;;;;;;5032624;28;20064;-68
2022/08/03 05:33:28;;;;;;;5.80;2.83;;;27.70;52.10;;;;;;5032361;28;20495;-72
2022/08/03 05:35:53;;;;;;;5.22;2.67;;;27.70;52.00;;;;;;5032256;28;20462;-70
2022/08/03 05:38:19;;;;;;;6.97;2.90;;;27.70;51.70;;;;;;5032337;28;20018;-70
2022/08/03 05:40:45;;;;;;;13.45;3.20;;;27.80;51.70;;;;;;5032013;28;20129;-71
2022/08/03 05:43:10;;;;;;;7.32;2.85;;;27.90;51.70;;;;;;5032108;28;20060;-70
2022/08/03 05:45:37;;;;;;;5.75;2.50;;;28.00;51.70;;;;;;5032105;28;20029;-72
2022/08/03 05:48:06;;;;;;;6.28;2.65;;;28.10;51.50;;;;;;5032244;28;20029;-72
2022/08/03 05:50:32;;;;;;;6.93;2.90;;;28.20;50.60;;;;;;5030914;28;20029;-72
2022/08/03 05:52:58;;;;;;;9.93;3.22;;;28.40;51.10;;;;;;5033872;28;20025;-71
2022/08/03 05:55:24;;;;;;;10.85;2.63;;;28.60;50.70;;;;;;5035777;28;20453;-71
2022/08/03 05:57:49;;;;;;;9.43;2.65;;;28.70;50.70;;;;;;5035599;28;20014;-70
2022/08/03 06:00:16;;;;;;;6.80;2.50;;;28.70;50.50;;;;;;5035654;28;20493;-71
2022/08/03 06:02:42;;;;;;;7.63;2.50;;;28.70;50.60;;;;;;5049561;28;20482;-72
2022/08/03 06:05:08;;;;;;;7.45;2.83;;;28.80;50.80;;;;;;5055265;28;20033;-72
2022/08/03 06:07:34;;;;;;;5.82;2.75;;;29.10;50.10;;;;;;5055334;28;20056;-70
2022/08/03 06:10:01;;;;;;;9.85;2.50;;;29.40;49.90;;;;;;5045166;28;20060;-76
2022/08/03 06:12:28;;;;;;;7.30;2.63;;;29.80;49.60;;;;;;5043817;28;20480;-79
2022/08/03 06:14:53;;;;;;;6.07;2.63;;;30.00;49.00;;;;;;5046452;28;20025;-78
2022/08/03 06:17:19;;;;;;;9.40;2.80;;;30.30;49.00;;;;;;5055082;28;20474;-80
2022/08/03 06:19:45;;;;;;;9.20;3.30;;;30.60;47.70;;;;;;5054880;28;20018;-78
2022/08/03 06:22:11;;;;;;;11.55;3.03;;;31.00;47.30;;;;;;5054872;28;20496;-78
2022/08/03 06:24:36;;;;;;;15.88;3.65;;;31.30;46.90;;;;;;5053597;28;20068;-78
2022/08/03 06:27:02;;;;;;;8.70;3.10;;;31.60;46.30;;;;;;5055104;28;20013;-77
2022/08/03 06:29:28;;;;;;;11.80;3.05;;;31.90;45.50;;;;;;5055448;28;20029;-78
2022/08/03 06:31:54;;;;;;;8.68;2.78;;;31.90;45.40;;;;;;5054108;28;20135;-78
2022/08/03 06:34:19;;;;;;;7.15;2.72;;;32.10;45.30;;;;;;5055593;28;20108;-74
2022/08/03 06:36:47;;;;;;;11.68;3.38;;;32.40;44.90;;;;;;5055381;28;20029;-74
2022/08/03 06:39:13;;;;;;;10.40;3.03;;;32.40;44.70;;;;;;5053660;28;20111;-72
2022/08/03 06:41:38;;;;;;;15.88;4.55;;;32.50;44.40;;;;;;5038071;28;20443;-76
2022/08/03 06:44:04;;;;;;;15.80;4.47;;;32.50;44.30;;;;;;5035198;28;20040;-75
2022/08/03 06:46:30;;;;;;;10.75;3.05;;;32.80;44.50;;;;;;5035625;28;20171;-73
2022/08/03 06:48:56;;;;;;;9.23;3.70;;;32.90;44.30;;;;;;5035000;28;20395;-74
2022/08/03 06:51:22;;;;;;;7.55;3.08;;;32.80;43.30;;;;;;5034620;28;20037;-76
2022/08/03 06:53:48;;;;;;;9.75;3.17;;;32.90;43.40;;;;;;5034883;28;20083;-76
2022/08/03 06:56:14;;;;;;;8.48;2.80;;;33.00;43.10;;;;;;5034268;28;20076;-74
2022/08/03 06:58:40;;;;;;;21.55;3.65;;;33.20;43.10;;;;;;5034805;28;20037;-75
2022/08/03 07:01:05;;;;;;;10.40;2.83;;;33.30;42.80;;;;;;5032986;28;20415;-76
2022/08/03 07:03:31;;;;;;;14.25;3.53;;;33.30;42.60;;;;;;5034178;28;20116;-76
2022/08/03 07:05:57;;;;;;;8.85;2.80;;;33.40;42.60;;;;;;5034203;28;20029;-74
2022/08/03 07:08:23;;;;;;;14.68;3.58;;;33.50;42.10;;;;;;5034641;28;20033;-75
2022/08/03 07:10:49;;;;;;;9.00;3.10;;;33.60;41.90;;;;;;5034468;28;20462;-75
2022/08/03 07:13:14;;;;;;;9.20;3.35;;;33.70;42.00;;;;;;5034307;28;20036;-76
2022/08/03 07:15:40;;;;;;;13.55;2.67;;;33.70;41.70;;;;;;5034087;28;20471;-75
2022/08/03 07:18:07;;;;;;;7.65;3.33;;;33.70;41.70;;;;;;5034503;28;20060;-75
2022/08/03 07:20:33;;;;;;;10.63;2.58;;;33.90;41.90;;;;;;5034542;28;20047;-78
2022/08/03 07:22:58;;;;;;;13.20;2.60;;;34.00;41.10;;;;;;5034403;28;20127;-75
2022/08/03 07:25:24;;;;;;;14.50;2.65;;;34.00;41.20;;;;;;5032490;28;20440;-76
2022/08/03 07:27:50;;;;;;;5.28;2.70;;;34.00;41.00;;;;;;5034059;28;20021;-75
2022/08/03 07:30:16;;;;;;;13.45;2.90;;;33.90;40.90;;;;;;5032553;28;20033;-77
2022/08/03 07:32:42;;;;;;;13.98;3.33;;;33.90;40.90;;;;;;5032283;28;20061;-76
2022/08/03 07:35:09;;;;;;;14.15;3.10;;;33.90;41.00;;;;;;5033499;28;20033;-77
2022/08/03 07:37:35;;;;;;;11.30;2.70;;;34.00;41.00;;;;;;5033538;28;20021;-76
2022/08/03 07:40:03;;;;;;;9.73;2.92;;;34.00;40.70;;;;;;5033846;28;20490;-74
2022/08/03 07:42:29;;;;;;;7.68;2.90;;;33.90;40.70;;;;;;5033373;28;20514;-77
2022/08/03 07:44:56;;;;;;;11.18;3.30;;;34.00;40.60;;;;;;5033527;28;20040;-75
2022/08/03 07:47:28;;;;;;;6.80;3.17;;;34.10;40.20;;;;;;5033637;28;20017;-77
2022/08/03 07:49:54;;;;;;;11.93;3.10;;;34.10;40.30;;;;;;5033386;28;20026;-76
2022/08/03 07:55:05;;;;;;;8.70;2.60;;;34.20;40.70;;;;;;5033718;28;20036;-77
2022/08/03 07:57:32;;;;;;;14.10;2.70;;;34.20;40.20;;;;;;5032500;28;20025;-75
2022/08/03 07:59:58;;;;;;;10.40;3.00;;;34.20;40.30;;;;;;5033701;28;20066;-78
2022/08/03 08:02:25;;;;;;;19.30;3.22;;;34.10;40.20;;;;;;5033220;28;20052;-78
2022/08/03 08:04:50;;;;;;;20.92;3.28;;;34.10;40.00;;;;;;5033561;28;20033;-78
2022/08/03 08:07:16;;;;;;;11.02;3.33;;;34.10;39.80;;;;;;5033652;28;20033;-78
2022/08/03 08:09:42;;;;;;;9.43;3.00;;;34.10;39.70;;;;;;5033468;28;20115;-77
2022/08/03 08:12:10;;;;;;;9.90;3.03;;;34.10;39.30;;;;;;5033182;28;20447;-79
2022/08/03 08:14:35;;;;;;;11.73;3.08;;;34.10;39.40;;;;;;5033295;28;20028;-78
2022/08/03 08:17:01;;;;;;;10.88;2.90;;;34.10;39.60;;;;;;5033241;28;20026;-77
2022/08/03 08:19:27;;;;;;;9.18;3.00;;;34.00;39.40;;;;;;5033114;28;20034;-77
2022/08/03 08:21:52;;;;;;;7.72;2.60;;;34.10;38.90;;;;;;5033419;28;20156;-79
2022/08/03 08:24:18;;;;;;;8.43;2.88;;;34.00;38.80;;;;;;5033357;28;20025;-78
2022/08/03 08:26:44;;;;;;;11.88;3.25;;;34.00;38.70;;;;;;5032914;28;20144;-78
2022/08/03 08:29:10;;;;;;;11.55;3.30;;;34.00;38.70;;;;;;5032895;28;20443;-78
2022/08/03 08:31:35;;;;;;;8.00;2.97;;;33.90;38.90;;;;;;5031942;28;20026;-78
2022/08/03 08:34:04;;;;;;;14.18;3.17;;;33.80;38.80;;;;;;5033606;28;20056;-80
2022/08/03 08:36:32;;;;;;;7.22;2.92;;;33.70;38.90;;;;;;5033351;28;20379;-79
2022/08/03 08:38:58;;;;;;;8.40;3.10;;;33.80;39.30;;;;;;5032123;28;20079;-79
2022/08/03 08:41:25;;;;;;;9.57;3.22;;;33.70;39.10;;;;;;5032578;28;20120;-79
2022/08/03 08:43:51;;;;;;;12.00;3.40;;;33.70;39.70;;;;;;5032575;28;20443;-79
2022/08/03 08:46:19;;;;;;;8.48;3.03;;;33.70;39.00;;;;;;5032743;28;20045;-78
2022/08/03 08:48:45;;;;;;;14.90;3.00;;;33.70;39.00;;;;;;5032955;28;20021;-80
2022/08/03 08:51:12;;;;;;;6.75;2.63;;;33.60;39.00;;;;;;5033013;28;20481;-79
2022/08/03 08:53:42;;;;;;;7.85;3.00;;;33.60;39.50;;;;;;5031517;28;20056;-78
2022/08/03 08:56:15;;;;;;;11.35;3.53;;;33.50;39.10;;;;;;5032527;28;20025;-76
2022/08/03 08:58:48;;;;;;;8.95;3.35;;;33.60;39.20;;;;;;5032472;28;20080;-76
2022/08/03 09:01:13;;;;;;;8.98;2.90;;;33.60;39.10;;;;;;5032364;28;20113;-77
2022/08/03 09:03:40;;;;;;;8.38;2.63;;;33.60;39.10;;;;;;5031937;28;20105;-75
2022/08/03 09:06:05;;;;;;;6.72;2.50;;;33.60;38.90;;;;;;5032311;28;20033;-75
2022/08/03 09:08:32;;;;;;;10.18;3.05;;;33.60;38.80;;;;;;5032369;28;20025;-74
2022/08/03 09:10:58;;;;;;;19.40;3.38;;;33.60;39.00;;;;;;5032280;28;20063;-74
2022/08/03 09:13:23;;;;;;;12.07;2.92;;;33.50;39.20;;;;;;5032075;28;20021;-75
2022/08/03 09:16:18;;;;;;;8.65;3.03;;;33.50;39.70;;;;;;5032343;28;20386;-77
2022/08/03 09:18:46;;;;;;;11.23;2.88;;;33.50;40.20;;;;;;5032380;28;20114;-75
2022/08/03 09:21:28;;;;;;;7.55;2.80;;;33.50;39.00;;;;;;5032515;28;20043;-76
2022/08/03 09:23:55;;;;;;;9.93;3.40;;;33.50;39.90;;;;;;5032089;28;20041;-76
2022/08/03 09:26:28;;;;;;;6.95;2.67;;;33.60;38.80;;;;;;5032237;28;20386;-76
2022/08/03 09:29:09;;;;;;;8.27;3.10;;;33.50;39.30;;;;;;5035758;28;20059;-75
2022/08/03 09:31:39;;;;;;;8.25;2.80;;;33.50;38.60;;;;;;5036200;28;20131;-75
2022/08/03 09:34:11;;;;;;;6.93;2.60;;;33.60;39.20;;;;;;5036066;28;20044;-75
2022/08/03 09:36:38;;;;;;;16.17;3.17;;;33.70;38.20;;;;;;5036228;28;20071;-74
2022/08/03 09:39:09;;;;;;;11.65;2.83;;;33.70;37.80;;;;;;5034757;28;20036;-75
2022/08/03 09:41:38;;;;;;;9.32;2.45;;;33.70;38.20;;;;;;5035696;28;20045;-74
2022/08/03 09:44:04;;;;;;;11.18;2.17;;;33.70;37.00;;;;;;5035775;28;20072;-76
2022/08/03 09:46:30;;;;;;;6.80;2.35;;;33.80;36.20;;;;;;5033995;28;20458;-74
2022/08/03 09:49:12;;;;;;;8.25;2.38;;;33.80;36.10;;;;;;5035872;28;20048;-76
2022/08/03 09:51:39;;;;;;;6.05;2.13;;;33.80;36.60;;;;;;5035703;28;20033;-75
2022/08/03 09:54:05;;;;;;;6.78;2.67;;;33.90;36.30;;;;;;5035865;28;20053;-78
2022/08/03 09:56:46;;;;;;;9.73;2.42;;;33.90;36.40;;;;;;5035742;28;20030;-76
2022/08/03 09:59:21;;;;;;;11.40;2.83;;;33.90;36.20;;;;;;5034266;28;20029;-77
2022/08/03 10:01:47;;;;;;;9.52;2.42;;;33.90;36.00;;;;;;5035742;28;20025;-76
2022/08/03 10:04:15;;;;;;;10.73;2.60;;;33.90;35.80;;;;;;5035966;28;20124;-76
2022/08/03 10:07:01;;;;;;;8.07;2.45;;;34.00;36.00;;;;;;5035922;28;20022;-77
2022/08/03 10:09:27;;;;;;;3.85;2.10;;;34.00;35.20;;;;;;5035725;28;20044;-75
2022/08/03 10:11:53;;;;;;;8.05;2.30;;;34.10;35.50;;;;;;5035583;28;20029;-76
2022/08/03 10:14:19;;;;;;;6.82;2.47;;;34.20;34.80;;;;;;5035643;28;20030;-77
2022/08/03 10:16:46;;;;;;;4.75;2.40;;;34.20;34.30;;;;;;5035715;28;20475;-76
2022/08/03 10:19:13;;;;;;;9.90;2.45;;;34.10;34.50;;;;;;5035521;28;20036;-75
2022/08/03 10:21:56;;;;;;;8.23;2.53;;;34.20;34.60;;;;;;5035390;28;20255;-76
2022/08/03 10:24:28;;;;;;;6.40;3.00;;;34.30;35.70;;;;;;5035576;28;20405;-75
2022/08/03 10:27:02;;;;;;;5.78;2.33;;;34.30;35.20;;;;;;5035411;28;20026;-75
2022/08/03 10:29:31;;;;;;;5.25;2.00;;;34.40;34.50;;;;;;5035566;28;20036;-75
2022/08/03 10:32:00;;;;;;;4.93;2.33;;;34.40;33.90;;;;;;5035709;28;20017;-76
2022/08/03 10:34:32;;;;;;;10.05;4.07;;;34.50;33.10;;;;;;5035404;28;20488;-77
2022/08/03 10:36:59;;;;;;;5.45;2.70;;;34.50;33.50;;;;;;5035207;28;20366;-75
2022/08/03 10:39:28;;;;;;;7.38;2.85;;;34.50;33.60;;;;;;5034191;28;20494;-76
2022/08/03 10:41:57;;;;;;;7.55;2.50;;;34.60;33.80;;;;;;5035079;28;20124;-75
2022/08/03 10:44:28;;;;;;;7.07;3.35;;;34.70;33.50;;;;;;5035326;28;20359;-77
2022/08/03 10:46:55;;;;;;;7.00;2.45;;;34.70;33.30;;;;;;5034950;28;20027;-75
2022/08/03 10:49:22;;;;;;;3.97;2.10;;;34.70;33.40;;;;;;5035355;28;20072;-75
2022/08/03 10:51:58;;;;;;;;;;;;;;;;;;;;;
2022/08/03 10:57:33;;;;;;;6.00;2.70;;;34.80;35.70;;;;;;5035118;28;20035;-75
2022/08/03 10:57:53;;;;;;;7.55;2.50;;;34.70;37.00;;;;;;5034833;28;20065;-76
2022/08/03 11:00:23;;;;;;;4.95;2.47;;;34.80;37.60;;;;;;5033695;28;20036;-77
2022/08/03 11:03:09;;;;;;;6.03;2.67;;;34.80;37.50;;;;;;5035060;28;20033;-76
2022/08/03 11:05:44;;;;;;;7.57;3.00;;;34.90;37.90;;;;;;5034723;28;20029;-76
2022/08/03 11:08:31;;;;;;;6.25;2.47;;;35.00;37.50;;;;;;5035253;28;20382;-77
2022/08/03 11:11:00;;;;;;;6.72;2.80;;;35.10;37.50;;;;;;5034833;28;20053;-78
2022/08/03 11:13:29;;;;;;;8.85;2.78;;;35.10;37.30;;;;;;5034942;28;20378;-79
2022/08/03 11:15:58;;;;;;;5.95;2.53;;;35.20;37.10;;;;;;5034690;28;20025;-75
2022/08/03 11:18:24;;;;;;;7.20;2.55;;;35.20;37.20;;;;;;5034851;28;20040;-76
2022/08/03 11:20:55;;;;;;;5.97;2.95;;;35.20;36.80;;;;;;5034749;28;20096;-77
2022/08/03 11:23:47;;;;;;;7.00;3.10;;;35.30;37.10;;;;;;5033634;28;20025;-76
2022/08/03 11:26:17;;;;;;;8.02;3.65;;;35.30;37.10;;;;;;5034426;28;20033;-77
2022/08/03 11:28:45;;;;;;;7.47;3.85;;;35.40;37.10;;;;;;5034271;28;20021;-76
2022/08/03 11:31:25;;;;;;;9.20;3.30;;;35.40;36.80;;;;;;5033166;28;20429;-77
2022/08/03 11:34:08;;;;;;;6.85;2.85;;;35.50;36.60;;;;;;5034776;28;20026;-79
2022/08/03 11:37:13;;;;;;;4.80;2.17;;;35.50;36.50;;;;;;5034652;28;20037;-76
2022/08/03 11:39:46;;;;;;;7.18;2.50;;;35.60;36.40;;;;;;5036002;28;20554;-76
2022/08/03 11:42:21;;;;;;;7.00;2.60;;;35.60;36.50;;;;;;5035000;28;20483;-77
2022/08/03 11:44:48;;;;;;;6.55;2.15;;;35.60;36.80;;;;;;5035185;28;20045;-77
2022/08/03 11:47:16;;;;;;;6.30;2.33;;;35.60;36.30;;;;;;5034247;28;20110;-76
2022/08/03 11:49:45;;;;;;;8.07;2.53;;;35.60;36.10;;;;;;5035680;28;20116;-76
2022/08/03 11:52:11;;;;;;;5.95;2.40;;;35.60;36.10;;;;;;5035299;28;20044;-75
2022/08/03 11:54:38;;;;;;;8.52;2.22;;;35.70;35.90;;;;;;5035855;28;20467;-75
2022/08/03 11:57:04;;;;;;;5.00;2.30;;;35.80;36.10;;;;;;5035698;28;20022;-77
2022/08/03 11:59:34;;;;;;;4.32;2.35;;;35.80;36.10;;;;;;5034907;28;20105;-76
2022/08/03 12:02:10;;;;;;;7.00;2.50;;;35.80;36.10;;;;;;5035135;28;20392;-78
2022/08/03 12:05:00;;;;;;;5.95;2.08;;;35.80;36.10;;;;;;5035091;28;20087;-79
2022/08/03 12:07:28;;;;;;;4.82;2.25;;;35.80;36.80;;;;;;5037151;28;20017;-75
2022/08/03 12:10:07;;;;;;;5.53;1.83;;;35.90;36.40;;;;;;5034927;28;20053;-76
2022/08/03 12:12:33;;;;;;;7.45;2.38;;;35.90;37.60;;;;;;5034694;28;20474;-77
2022/08/03 12:14:59;;;;;;;5.53;2.30;;;35.90;37.70;;;;;;5034274;28;20032;-77
2022/08/03 12:17:34;;;;;;;17.13;2.10;;;35.90;38.10;;;;;;5034770;28;20033;-76
2022/08/03 12:20:01;;;;;;;4.55;2.25;;;35.90;38.10;;;;;;5034579;28;20021;-75
2022/08/03 12:22:31;;;;;;;4.63;2.15;;;35.90;37.90;;;;;;5034303;28;20026;-77
2022/08/03 12:24:57;;;;;;;6.78;2.25;;;36.00;38.00;;;;;;5034440;28;20505;-75
2022/08/03 12:27:25;;;;;;;7.18;2.22;;;36.00;37.80;;;;;;5034353;28;20021;-76
2022/08/03 12:29:56;;;;;;;4.75;2.00;;;36.00;37.80;;;;;;5033020;28;20121;-77
2022/08/03 12:32:22;;;;;;;4.68;1.90;;;36.10;37.90;;;;;;5032765;28;20104;-76
2022/08/03 12:34:49;;;;;;;3.28;1.80;;;36.00;38.10;;;;;;5034704;28;20156;-75
2022/08/03 12:37:19;;;;;;;2.85;2.10;;;36.10;37.80;;;;;;5034113;28;20030;-76
2022/08/03 12:39:53;;;;;;;5.28;2.03;;;36.10;37.70;;;;;;5033288;28;20088;-76
2022/08/03 12:42:19;;;;;;;7.95;2.42;;;36.10;36.20;;;;;;5033257;28;20052;-76
2022/08/03 12:44:47;;;;;;;4.30;2.03;;;36.10;35.70;;;;;;5033062;28;20037;-76
2022/08/03 12:47:14;;;;;;;5.63;2.05;;;36.20;35.70;;;;;;5033148;28;20458;-76
2022/08/03 12:49:51;;;;;;;3.83;1.65;;;36.20;35.70;;;;;;5033007;28;20053;-76
2022/08/03 12:52:18;;;;;;;5.53;1.98;;;36.20;35.80;;;;;;5033448;28;20036;-77
2022/08/03 12:54:55;;;;;;;5.20;1.85;;;36.10;35.70;;;;;;5033243;28;20087;-77
2022/08/03 12:57:20;;;;;;;6.88;2.33;;;36.20;35.80;;;;;;5033231;28;20029;-77
2022/08/03 12:59:47;;;;;;;4.68;2.03;;;36.10;35.90;;;;;;5031630;28;20032;-77
2022/08/03 13:02:19;;;;;;;6.47;2.00;;;36.10;36.20;;;;;;5032418;28;20071;-77
2022/08/03 13:04:46;;;;;;;5.53;1.63;;;36.10;36.30;;;;;;5032897;28;20068;-75
2022/08/03 13:07:13;;;;;;;4.63;2.00;;;36.10;35.80;;;;;;5032900;28;20295;-75